Time;durP1;ratioP1;P1;durP2;ratioP2;P2;SDS_P1;SDS_P2;PMS_P1;PMS_P2;Temp;Humidity;BMP_temperature;BMP_pressure;BME280_temperature;BME280_humidity;BME280_pressure;Samples;Min_cycle;Max_cycle;Signal;HPM_P1;HPM_P2
2022/07/01 00:00:48;;;;;;;5.97;1.43;;;17.10;99.90;;;;;;5117014;28;20043;-69
2022/07/01 00:03:13;;;;;;;4.30;1.10;;;17.10;99.90;;;;;;5098695;28;20043;-69
2022/07/01 00:05:39;;;;;;;4.53;1.17;;;17.10;99.90;;;;;;5117032;28;20079;-69
2022/07/01 00:08:05;;;;;;;4.87;1.10;;;17.10;99.90;;;;;;5116621;28;20132;-69
2022/07/01 00:10:31;;;;;;;3.87;1.10;;;17.00;99.90;;;;;;5098502;28;20043;-69
2022/07/01 00:12:57;;;;;;;4.70;1.27;;;17.00;99.90;;;;;;5116773;28;20040;-69
2022/07/01 00:15:23;;;;;;;5.47;1.60;;;17.00;99.90;;;;;;5116341;28;20052;-69
2022/07/01 00:17:49;;;;;;;2.00;0.90;;;17.00;99.90;;;;;;5116605;28;20048;-69
2022/07/01 00:20:15;;;;;;;2.93;1.30;;;17.00;99.90;;;;;;5098239;28;20048;-69
2022/07/01 00:22:41;;;;;;;2.33;1.17;;;17.00;99.90;;;;;;5116751;28;20057;-69
2022/07/01 00:25:08;;;;;;;3.90;1.40;;;16.90;99.90;;;;;;5116366;28;20039;-69
2022/07/01 00:27:38;;;;;;;4.90;1.77;;;16.90;99.90;;;;;;5116381;28;20051;-69
2022/07/01 00:30:04;;;;;;;5.10;1.43;;;16.80;99.90;;;;;;5116581;28;20093;-73
2022/07/01 00:32:30;;;;;;;2.70;1.30;;;16.80;99.90;;;;;;5116181;28;20074;-69
2022/07/01 00:34:55;;;;;;;3.70;1.60;;;16.80;99.90;;;;;;5116204;28;20044;-69
2022/07/01 00:37:21;;;;;;;2.67;1.27;;;16.90;99.90;;;;;;5097542;28;20043;-69
2022/07/01 00:39:47;;;;;;;2.13;1.20;;;16.90;99.90;;;;;;5116066;28;20134;-69
2022/07/01 00:42:12;;;;;;;2.67;1.40;;;16.90;99.90;;;;;;5115862;28;20051;-69
2022/07/01 00:44:38;;;;;;;2.93;1.27;;;16.80;99.90;;;;;;5115701;28;20050;-69
2022/07/01 00:47:10;;;;;;;3.57;1.40;;;16.80;99.90;;;;;;5116018;28;20044;-69
2022/07/01 00:49:36;;;;;;;4.63;1.43;;;16.70;99.90;;;;;;5115702;28;20052;-69
2022/07/01 00:52:03;;;;;;;2.80;1.30;;;16.60;99.90;;;;;;5116007;28;20121;-69
2022/07/01 00:54:31;;;;;;;2.93;1.43;;;16.60;99.90;;;;;;5115552;28;20046;-69
2022/07/01 00:56:56;;;;;;;4.67;1.40;;;16.60;99.90;;;;;;5115810;28;20046;-68
2022/07/01 00:59:22;;;;;;;2.73;1.53;;;16.60;99.90;;;;;;5114797;28;20048;-68
2022/07/01 01:01:48;;;;;;;2.60;1.30;;;16.60;99.90;;;;;;5115654;28;20048;-68
2022/07/01 01:04:14;;;;;;;4.30;1.57;;;16.60;99.90;;;;;;5115502;28;20456;-69
2022/07/01 01:06:40;;;;;;;3.23;1.23;;;16.70;99.90;;;;;;5115818;28;20040;-68
2022/07/01 01:09:06;;;;;;;3.00;1.20;;;16.60;99.90;;;;;;5115575;28;20082;-68
2022/07/01 01:11:32;;;;;;;3.60;1.30;;;16.60;99.90;;;;;;5115280;28;20082;-68
2022/07/01 01:13:57;;;;;;;4.03;1.40;;;16.60;99.90;;;;;;5115619;28;20044;-68
2022/07/01 01:16:25;;;;;;;3.40;1.33;;;16.70;99.90;;;;;;5115268;28;20058;-68
2022/07/01 01:18:51;;;;;;;5.67;1.70;;;16.70;99.90;;;;;;5115374;28;20051;-69
2022/07/01 01:21:18;;;;;;;2.53;1.40;;;16.70;99.90;;;;;;5097020;28;20051;-69
2022/07/01 01:23:44;;;;;;;2.87;1.50;;;16.70;99.90;;;;;;5115336;28;20090;-68
2022/07/01 01:26:21;;;;;;;3.10;1.33;;;16.70;99.90;;;;;;5115205;28;20091;-68
2022/07/01 01:28:48;;;;;;;3.83;1.50;;;16.70;99.90;;;;;;5114825;28;20552;-69
2022/07/01 01:31:14;;;;;;;3.30;1.40;;;16.70;99.90;;;;;;5114999;28;20044;-69
2022/07/01 01:33:40;;;;;;;4.80;1.60;;;16.70;99.90;;;;;;5115261;28;20395;-68
2022/07/01 01:36:09;;;;;;;4.67;1.50;;;16.70;99.90;;;;;;5114948;28;20043;-68
2022/07/01 01:38:35;;;;;;;5.27;1.70;;;16.70;99.90;;;;;;5114797;28;20122;-68
2022/07/01 01:41:03;;;;;;;3.83;1.73;;;16.80;99.90;;;;;;5114907;28;20491;-68
2022/07/01 01:43:29;;;;;;;3.80;1.57;;;16.80;99.90;;;;;;5114706;28;20044;-69
2022/07/01 01:45:54;;;;;;;3.20;1.53;;;16.80;99.90;;;;;;5114801;28;20047;-68
2022/07/01 01:48:20;;;;;;;4.97;1.67;;;16.70;99.90;;;;;;5114538;28;20136;-69
2022/07/01 01:50:46;;;;;;;4.40;1.50;;;16.70;99.90;;;;;;5114703;28;20051;-69
2022/07/01 01:53:11;;;;;;;5.47;1.90;;;16.70;99.90;;;;;;5114726;28;20044;-68
2022/07/01 01:55:37;;;;;;;4.40;1.67;;;16.70;99.90;;;;;;5114627;28;20046;-69
2022/07/01 01:58:03;;;;;;;8.43;1.80;;;16.60;99.90;;;;;;5096195;28;20051;-68
2022/07/01 02:00:28;;;;;;;4.93;2.30;;;16.60;99.90;;;;;;5114277;28;20043;-69
2022/07/01 02:02:54;;;;;;;4.73;2.00;;;16.60;99.90;;;;;;5114497;28;20043;-69
2022/07/01 02:05:20;;;;;;;4.47;1.77;;;16.50;99.90;;;;;;5114221;28;20039;-69
2022/07/01 02:07:46;;;;;;;3.47;1.67;;;16.50;99.90;;;;;;5114633;28;20040;-69
2022/07/01 02:10:12;;;;;;;5.40;2.00;;;16.50;99.90;;;;;;5113323;28;20096;-69
2022/07/01 02:12:37;;;;;;;4.60;2.20;;;16.40;99.90;;;;;;5114011;28;20044;-69
2022/07/01 02:15:03;;;;;;;4.53;1.90;;;16.40;99.90;;;;;;5114115;28;20043;-68
2022/07/01 02:17:29;;;;;;;4.37;2.60;;;16.40;99.90;;;;;;5096083;28;20044;-69
2022/07/01 02:19:55;;;;;;;5.43;2.60;;;16.40;99.90;;;;;;5114151;28;20066;-69
2022/07/01 02:22:20;;;;;;;6.83;3.27;;;16.30;99.90;;;;;;5113938;28;20503;-69
2022/07/01 02:24:46;;;;;;;4.33;2.90;;;16.30;99.90;;;;;;5114068;28;20040;-69
2022/07/01 02:27:12;;;;;;;5.40;2.80;;;16.30;99.90;;;;;;5114043;28;20058;-69
2022/07/01 02:29:38;;;;;;;4.87;2.73;;;16.30;99.90;;;;;;5113768;28;20043;-69
2022/07/01 02:32:04;;;;;;;6.50;2.40;;;16.30;99.90;;;;;;5113986;28;20086;-68
2022/07/01 02:34:30;;;;;;;5.67;3.23;;;16.30;99.90;;;;;;5113722;28;20486;-69
2022/07/01 02:36:56;;;;;;;7.20;2.30;;;16.30;99.90;;;;;;5113855;28;20122;-69
2022/07/01 02:39:22;;;;;;;5.67;2.53;;;16.30;99.90;;;;;;5113626;28;20043;-69
2022/07/01 02:44:34;;;;;;;6.43;3.22;;;16.30;99.90;;;;;;5113670;28;20055;-69
2022/07/01 02:47:00;;;;;;;4.77;2.70;;;16.30;99.90;;;;;;5113486;28;20483;-69
2022/07/01 02:49:26;;;;;;;6.37;2.40;;;16.30;99.90;;;;;;5113371;28;20122;-69
2022/07/01 02:51:51;;;;;;;4.77;3.10;;;16.30;99.90;;;;;;5114126;28;20472;-69
2022/07/01 02:54:17;;;;;;;4.80;2.60;;;16.30;99.90;;;;;;5113281;28;20375;-69
2022/07/01 02:56:43;;;;;;;4.20;2.50;;;16.30;99.90;;;;;;5113198;28;20093;-69
2022/07/01 02:59:08;;;;;;;5.97;2.90;;;16.20;99.90;;;;;;5113796;28;20123;-68
2022/07/01 03:01:34;;;;;;;4.00;2.53;;;16.20;99.90;;;;;;5113071;28;20100;-68
2022/07/01 03:04:00;;;;;;;4.73;2.60;;;16.20;99.90;;;;;;5113749;28;20044;-68
2022/07/01 03:06:26;;;;;;;4.60;2.57;;;16.20;99.90;;;;;;5113371;28;20105;-69
2022/07/01 03:08:52;;;;;;;5.53;3.00;;;16.20;99.90;;;;;;5095349;28;20088;-69
2022/07/01 03:11:17;;;;;;;5.23;3.13;;;16.20;99.90;;;;;;5113477;28;20048;-68
2022/07/01 03:13:44;;;;;;;7.07;3.80;;;16.20;99.90;;;;;;5113338;28;20130;-68
2022/07/01 03:16:10;;;;;;;6.63;3.27;;;16.20;99.90;;;;;;5113379;28;20518;-69
2022/07/01 03:18:36;;;;;;;6.77;3.30;;;16.20;99.90;;;;;;5113269;28;20044;-69
2022/07/01 03:21:01;;;;;;;6.13;3.23;;;16.20;99.90;;;;;;5095763;28;20055;-68
2022/07/01 03:23:27;;;;;;;4.77;3.00;;;16.10;99.90;;;;;;5117388;28;20051;-69
2022/07/01 03:25:53;;;;;;;6.73;3.77;;;16.10;99.90;;;;;;5117738;28;20039;-69
2022/07/01 03:28:18;;;;;;;6.63;3.77;;;16.10;99.90;;;;;;5117864;28;20122;-68
2022/07/01 03:30:44;;;;;;;6.53;3.30;;;16.10;99.90;;;;;;5117200;28;20476;-69
2022/07/01 03:33:10;;;;;;;8.13;4.90;;;16.10;99.90;;;;;;5117502;28;20137;-68
2022/07/01 03:35:35;;;;;;;7.50;3.83;;;16.10;99.90;;;;;;5117065;28;20083;-69
2022/07/01 03:38:03;;;;;;;7.03;3.10;;;16.00;99.90;;;;;;5116935;28;20093;-69
2022/07/01 03:40:29;;;;;;;8.20;3.87;;;16.00;99.90;;;;;;5117051;28;20070;-69
2022/07/01 03:42:55;;;;;;;10.60;3.73;;;16.10;99.90;;;;;;5117409;28;20095;-69
2022/07/01 03:45:20;;;;;;;8.63;4.43;;;16.00;99.90;;;;;;5117156;28;20043;-69
2022/07/01 03:47:50;;;;;;;7.57;3.60;;;16.00;99.90;;;;;;5116930;28;20051;-69
2022/07/01 03:50:16;;;;;;;7.37;4.10;;;16.00;99.90;;;;;;5116754;28;20051;-69
2022/07/01 03:52:43;;;;;;;7.43;3.97;;;16.00;99.90;;;;;;5116790;28;20047;-69
2022/07/01 03:55:09;;;;;;;8.77;4.80;;;16.00;99.90;;;;;;5098869;28;20392;-69
2022/07/01 03:57:35;;;;;;;8.87;4.37;;;16.00;99.90;;;;;;5116748;28;20086;-69
2022/07/01 04:00:01;;;;;;;9.57;5.13;;;16.00;99.90;;;;;;5098903;28;20083;-68
2022/07/01 04:02:27;;;;;;;7.30;4.77;;;16.00;99.90;;;;;;5098589;28;20047;-69
2022/07/01 04:04:55;;;;;;;6.90;4.60;;;16.00;99.90;;;;;;5116454;28;20510;-69
2022/07/01 04:07:21;;;;;;;7.50;4.77;;;16.00;99.90;;;;;;5116735;28;20444;-69
2022/07/01 04:09:47;;;;;;;8.63;4.37;;;16.00;99.90;;;;;;5116474;28;20053;-69
2022/07/01 04:12:13;;;;;;;9.57;5.03;;;16.00;99.90;;;;;;5116633;28;20051;-69
2022/07/01 04:14:39;;;;;;;7.83;5.03;;;16.00;99.90;;;;;;5116344;28;20105;-69
2022/07/01 04:17:06;;;;;;;9.20;5.40;;;16.00;99.90;;;;;;5116583;28;20483;-69
2022/07/01 04:19:32;;;;;;;11.50;5.23;;;16.00;99.90;;;;;;5116314;28;20108;-69
2022/07/01 04:24:41;;;;;;;10.87;5.27;;;16.10;99.90;;;;;;5116223;28;20075;-69
2022/07/01 04:27:07;;;;;;;9.07;4.97;;;16.10;99.90;;;;;;5115927;28;20047;-68
2022/07/01 04:29:33;;;;;;;11.37;4.97;;;16.10;99.90;;;;;;5116132;28;20047;-69
2022/07/01 04:31:59;;;;;;;10.97;5.77;;;16.20;99.90;;;;;;5116070;28;20487;-69
2022/07/01 04:34:25;;;;;;;10.23;4.70;;;16.20;99.90;;;;;;5115108;28;20097;-69
2022/07/01 04:36:51;;;;;;;9.67;4.40;;;16.20;99.90;;;;;;5115924;28;20040;-69
2022/07/01 04:39:17;;;;;;;10.37;4.77;;;16.20;99.90;;;;;;5098153;28;20079;-68
2022/07/01 04:42:01;;;;;;;6.57;4.07;;;16.20;99.90;;;;;;5115608;28;20043;-69
2022/07/01 04:44:35;;;;;;;7.67;4.30;;;16.20;99.90;;;;;;5116184;28;20035;-69
2022/07/01 04:47:02;;;;;;;8.13;4.17;;;16.20;99.90;;;;;;5098154;28;20051;-69
2022/07/01 04:49:28;;;;;;;12.07;4.03;;;16.20;99.90;;;;;;5115775;28;20043;-69
2022/07/01 04:51:55;;;;;;;7.93;4.50;;;16.20;99.90;;;;;;5115750;28;20087;-69
2022/07/01 04:54:21;;;;;;;8.57;3.93;;;16.20;99.90;;;;;;5115728;28;20483;-69
2022/07/01 04:56:47;;;;;;;10.00;4.13;;;16.20;99.90;;;;;;5115561;28;20050;-69
2022/07/01 04:59:14;;;;;;;7.70;4.03;;;16.10;99.90;;;;;;5115724;28;20043;-69
2022/07/01 05:01:43;;;;;;;5.63;3.70;;;16.20;99.90;;;;;;5115364;28;20043;-69
2022/07/01 05:04:09;;;;;;;9.83;4.13;;;16.20;99.90;;;;;;5115425;28;20043;-69
2022/07/01 05:06:35;;;;;;;8.03;4.00;;;16.20;99.90;;;;;;5097551;28;20055;-69
2022/07/01 05:09:02;;;;;;;8.70;3.87;;;16.20;99.90;;;;;;5115882;28;20055;-69
2022/07/01 05:11:28;;;;;;;7.57;4.27;;;16.30;99.90;;;;;;5115479;28;20050;-69
2022/07/01 05:13:54;;;;;;;6.77;3.20;;;16.30;99.90;;;;;;5096925;28;20051;-69
2022/07/01 05:16:19;;;;;;;8.50;3.73;;;16.30;99.90;;;;;;5097359;28;20124;-69
2022/07/01 05:24:14;;;;;;;9.47;3.70;;;16.30;99.90;;;;;;5115265;28;20535;-69
2022/07/01 05:26:39;;;;;;;12.30;4.40;;;16.40;99.90;;;;;;5115008;28;20126;-69
2022/07/01 05:29:05;;;;;;;13.10;4.97;;;16.40;99.90;;;;;;5097054;28;20051;-69
2022/07/01 05:31:31;;;;;;;8.20;4.90;;;16.40;99.90;;;;;;5115113;28;20035;-69
2022/07/01 05:33:57;;;;;;;9.57;4.90;;;16.40;99.90;;;;;;5114736;28;20050;-69
2022/07/01 05:36:22;;;;;;;10.43;5.50;;;16.40;99.90;;;;;;5114873;28;20575;-69
2022/07/01 05:38:48;;;;;;;9.20;5.23;;;16.40;99.90;;;;;;5096503;28;20085;-69
2022/07/01 05:41:14;;;;;;;14.80;6.63;;;16.40;99.90;;;;;;5114845;28;20368;-69
2022/07/01 05:43:39;;;;;;;11.90;6.10;;;16.40;99.90;;;;;;5114573;28;20054;-69
2022/07/01 05:46:05;;;;;;;14.60;6.47;;;16.30;99.90;;;;;;5114842;28;20143;-69
2022/07/01 05:48:31;;;;;;;12.40;6.77;;;16.40;99.90;;;;;;5096575;28;20055;-69
2022/07/01 05:50:56;;;;;;;11.33;6.53;;;16.40;99.90;;;;;;5114669;28;20130;-69
2022/07/01 05:53:22;;;;;;;11.00;6.83;;;16.40;99.90;;;;;;5096665;28;20484;-69
2022/07/01 05:55:48;;;;;;;11.33;6.57;;;16.50;99.90;;;;;;5114337;28;20127;-69
2022/07/01 05:58:14;;;;;;;16.73;7.27;;;16.50;99.90;;;;;;5096686;28;20104;-69
2022/07/01 06:00:41;;;;;;;13.00;6.50;;;16.60;99.90;;;;;;5114337;28;20096;-69
2022/07/01 06:03:11;;;;;;;13.10;6.53;;;16.60;99.90;;;;;;5114425;28;20039;-69
2022/07/01 06:05:37;;;;;;;13.60;6.63;;;16.60;99.90;;;;;;5114303;28;20035;-69
2022/07/01 06:08:04;;;;;;;10.43;6.87;;;16.60;99.90;;;;;;5114144;28;20054;-69
2022/07/01 06:10:30;;;;;;;12.30;6.97;;;16.60;99.90;;;;;;5096210;28;20048;-69
2022/07/01 06:12:56;;;;;;;11.60;6.33;;;16.60;99.90;;;;;;5114155;28;20534;-69
2022/07/01 06:15:21;;;;;;;13.87;6.87;;;16.70;99.90;;;;;;5114389;28;20036;-69
2022/07/01 06:17:49;;;;;;;17.13;6.17;;;16.70;99.90;;;;;;5114001;28;20083;-69
2022/07/01 06:20:15;;;;;;;11.73;5.97;;;16.70;99.90;;;;;;5114224;28;20048;-69
2022/07/01 06:22:41;;;;;;;11.47;5.47;;;16.70;99.90;;;;;;5114153;28;20070;-73
2022/07/01 06:25:07;;;;;;;11.70;5.57;;;16.70;99.90;;;;;;5114116;28;20471;-69
2022/07/01 06:27:44;;;;;;;13.73;5.43;;;16.70;99.90;;;;;;5114000;28;20204;-69
2022/07/01 06:30:11;;;;;;;12.03;5.03;;;16.70;99.90;;;;;;5114072;28;20058;-69
2022/07/01 06:32:37;;;;;;;13.13;4.30;;;16.80;99.90;;;;;;5113955;28;20040;-69
2022/07/01 06:35:04;;;;;;;10.70;4.63;;;16.80;99.90;;;;;;5113721;28;20408;-69
2022/07/01 06:37:33;;;;;;;13.40;4.93;;;16.80;99.90;;;;;;5113933;28;20047;-69
2022/07/01 06:40:00;;;;;;;9.57;4.30;;;16.80;99.90;;;;;;5113702;28;20050;-69
2022/07/01 06:42:26;;;;;;;15.10;5.00;;;16.80;99.90;;;;;;5113996;28;20131;-69
2022/07/01 06:44:51;;;;;;;16.60;10.10;;;16.90;99.90;;;;;;5110228;28;20458;-71
2022/07/01 06:47:17;;;;;;;16.53;11.67;;;16.90;99.90;;;;;;5094999;28;20048;-69
2022/07/01 06:49:43;;;;;;;20.47;12.23;;;17.00;99.90;;;;;;5071773;28;20508;-69
2022/07/01 06:52:08;;;;;;;14.33;12.83;;;17.10;99.90;;;;;;5072695;28;20079;-69
2022/07/01 06:54:37;;;;;;;15.93;12.93;;;17.20;99.90;;;;;;5073002;28;20040;-69
2022/07/01 06:57:04;;;;;;;18.97;14.10;;;17.30;99.90;;;;;;5072218;28;20052;-69
2022/07/01 06:59:29;;;;;;;14.53;11.47;;;17.30;99.90;;;;;;5071811;28;20044;-69
2022/07/01 07:01:55;;;;;;;15.93;12.70;;;17.30;99.90;;;;;;5055280;28;20046;-69
2022/07/01 07:04:21;;;;;;;16.53;11.20;;;17.40;99.90;;;;;;5071872;28;20044;-69
2022/07/01 07:06:46;;;;;;;16.03;11.60;;;17.40;99.90;;;;;;5072612;28;20041;-69
2022/07/01 07:09:12;;;;;;;17.77;13.33;;;17.40;99.90;;;;;;5072938;28;20547;-69
2022/07/01 07:11:38;;;;;;;18.80;14.33;;;17.50;99.90;;;;;;5073224;28;20109;-69
2022/07/01 07:14:03;;;;;;;21.43;15.30;;;17.50;99.90;;;;;;5071402;28;20477;-69
2022/07/01 07:16:29;;;;;;;16.97;14.80;;;17.50;99.90;;;;;;5073004;28;20121;-69
2022/07/01 07:18:55;;;;;;;22.30;16.77;;;17.50;99.90;;;;;;5072725;28;20067;-69
2022/07/01 07:21:20;;;;;;;18.07;14.97;;;17.50;99.90;;;;;;5072829;28;20053;-69
2022/07/01 07:23:46;;;;;;;19.00;13.90;;;17.60;99.90;;;;;;5072900;28;20132;-68
2022/07/01 07:26:12;;;;;;;16.83;13.20;;;17.70;99.90;;;;;;5071385;28;20044;-69
2022/07/01 07:28:38;;;;;;;17.93;13.17;;;17.80;99.90;;;;;;5072790;28;20076;-69
2022/07/01 07:31:03;;;;;;;19.20;12.50;;;18.00;99.90;;;;;;5072594;28;20056;-69
2022/07/01 07:33:29;;;;;;;18.73;12.47;;;18.40;99.90;;;;;;5072717;28;20447;-69
2022/07/01 07:35:55;;;;;;;15.90;10.87;;;18.70;99.90;;;;;;5072417;28;20048;-69
2022/07/01 07:38:21;;;;;;;14.80;9.83;;;19.00;99.90;;;;;;5072680;28;20044;-69
2022/07/01 07:40:47;;;;;;;16.33;10.70;;;19.30;99.90;;;;;;5072627;28;20048;-67
2022/07/01 07:43:13;;;;;;;18.30;10.70;;;20.10;99.90;;;;;;5072418;28;20101;-67
2022/07/01 07:45:38;;;;;;;13.53;10.00;;;20.20;99.90;;;;;;5071461;28;20049;-67
2022/07/01 07:48:05;;;;;;;15.13;10.23;;;20.50;99.90;;;;;;5072483;28;20110;-67
2022/07/01 07:50:31;;;;;;;14.80;10.87;;;20.60;99.90;;;;;;5083487;28;20401;-68
2022/07/01 07:52:57;;;;;;;11.43;8.07;;;20.70;99.90;;;;;;5092539;28;20055;-69
2022/07/01 07:55:23;;;;;;;13.17;8.70;;;20.70;99.90;;;;;;5092622;28;20040;-69
2022/07/01 07:57:49;;;;;;;11.03;7.43;;;20.70;99.90;;;;;;5074859;28;20497;-69
2022/07/01 08:00:15;;;;;;;11.40;3.60;;;21.70;99.90;;;;;;5074471;28;20048;-69
2022/07/01 08:02:41;;;;;;;9.50;3.67;;;22.40;99.90;;;;;;5092642;28;20044;-69
2022/07/01 08:05:09;;;;;;;10.70;3.20;;;23.30;99.90;;;;;;5092361;28;20036;-70
2022/07/01 08:07:39;;;;;;;9.83;2.60;;;23.40;99.90;;;;;;5093810;28;20083;-69
2022/07/01 08:10:06;;;;;;;6.23;1.93;;;23.10;99.90;;;;;;5078023;28;20428;-70
2022/07/01 08:12:32;;;;;;;7.80;2.47;;;22.90;99.90;;;;;;5096438;28;20411;-70
2022/07/01 08:14:59;;;;;;;5.70;1.60;;;22.60;99.90;;;;;;5095839;28;20043;-70
2022/07/01 08:17:24;;;;;;;7.80;2.10;;;22.30;99.90;;;;;;5078016;28;20044;-69
2022/07/01 08:19:50;;;;;;;13.00;2.20;;;22.20;99.90;;;;;;5096003;28;20046;-69
2022/07/01 08:22:16;;;;;;;10.53;2.40;;;22.10;99.90;;;;;;5095858;28;20047;-69
2022/07/01 08:24:42;;;;;;;7.90;1.83;;;22.40;99.90;;;;;;5096026;28;20436;-69
2022/07/01 08:27:07;;;;;;;12.40;2.37;;;22.50;99.90;;;;;;5095814;28;20039;-69
2022/07/01 08:29:33;;;;;;;8.30;2.20;;;22.30;99.90;;;;;;5095865;28;20055;-69
2022/07/01 08:31:59;;;;;;;7.90;2.10;;;22.20;99.90;;;;;;5095697;28;20054;-70
2022/07/01 08:34:25;;;;;;;10.53;3.30;;;;;;;;;;5095715;28;20441;-69
2022/07/01 08:36:51;;;;;;;7.57;3.87;;;21.80;99.90;;;;;;5095766;28;20044;-69
2022/07/01 08:39:17;;;;;;;10.00;4.27;;;21.40;99.90;;;;;;5095495;28;20040;-69
2022/07/01 08:41:43;;;;;;;10.43;5.00;;;;;;;;;;5095643;28;20131;-69
2022/07/01 08:44:09;;;;;;;11.60;6.00;;;21.20;99.90;;;;;;5095449;28;20048;-70
2022/07/01 08:46:35;;;;;;;11.63;5.53;;;21.10;99.90;;;;;;5095593;28;20150;-69
2022/07/01 08:49:02;;;;;;;8.73;4.93;;;21.20;99.90;;;;;;5095430;28;20113;-70
2022/07/01 08:51:28;;;;;;;13.30;6.30;;;21.30;99.90;;;;;;5077511;28;20052;-69
2022/07/01 08:53:53;;;;;;;8.97;4.10;;;21.30;99.90;;;;;;5095494;28;20044;-69
2022/07/01 08:59:06;;;;;;;8.20;2.63;;;21.50;99.90;;;;;;5095108;28;20058;-70
2022/07/01 09:01:32;;;;;;;7.13;2.10;;;21.80;99.90;;;;;;5095434;28;20101;-69
2022/07/01 09:04:17;;;;;;;7.33;2.67;;;22.00;99.90;;;;;;5077018;28;20044;-72
2022/07/01 09:06:43;;;;;;;9.63;2.22;;;22.20;99.90;;;;;;5095500;28;20055;-69
2022/07/01 09:09:18;;;;;;;9.27;2.73;;;22.30;99.90;;;;;;5094993;28;20496;-70
2022/07/01 09:11:44;;;;;;;;;;;22.50;99.90;;;;;;5095733;28;20369;-70
2022/07/01 09:14:15;;;;;;;7.37;2.50;;;22.40;99.90;;;;;;5094794;28;19927;-70
2022/07/01 09:16:46;;;;;;;10.37;3.40;;;22.40;99.90;;;;;;5095071;28;20093;-70
2022/07/01 09:19:13;;;;;;;5.87;2.50;;;22.40;99.90;;;;;;5094065;28;20040;-70
2022/07/01 09:21:39;;;;;;;7.57;2.47;;;22.50;99.90;;;;;;5094868;28;20512;-70
2022/07/01 09:24:24;;;;;;;7.13;2.47;;;22.50;99.90;;;;;;5094598;28;20048;-70
2022/07/01 09:27:00;;;;;;;10.30;3.33;;;22.40;99.90;;;;;;5076804;28;20048;-70
2022/07/01 09:29:34;;;;;;;9.17;2.30;;;22.40;99.90;;;;;;5059889;28;20090;-70
2022/07/01 09:32:03;;;;;;;5.95;2.53;;;22.60;99.90;;;;;;5094860;28;20388;-70
2022/07/01 09:34:46;;;;;;;10.30;2.40;;;22.70;99.90;;;;;;5094589;28;20127;-70
2022/07/01 09:37:17;;;;;;;8.73;2.77;;;22.70;98.90;;;;;;5094427;28;20052;-70
2022/07/01 09:39:44;;;;;;;8.10;2.40;;;22.80;98.00;;;;;;5094628;28;20051;-70
2022/07/01 09:42:10;;;;;;;5.60;2.10;;;22.90;98.80;;;;;;5076097;28;20048;-70
2022/07/01 09:45:02;;;;;;;7.73;2.30;;;22.90;96.20;;;;;;5094441;28;20036;-70
2022/07/01 09:47:29;;;;;;;5.33;1.97;;;22.80;95.60;;;;;;5094654;28;20040;-70
2022/07/01 09:49:56;;;;;;;7.10;2.20;;;22.70;96.00;;;;;;5094284;28;20056;-70
2022/07/01 09:52:22;;;;;;;8.23;2.27;;;22.60;97.00;;;;;;5076375;28;20052;-70
2022/07/01 09:54:49;;;;;;;7.60;2.03;;;22.40;97.00;;;;;;5094155;28;20127;-70
2022/07/01 09:57:19;;;;;;;5.47;1.93;;;22.10;96.60;;;;;;5093974;28;20040;-70
2022/07/01 09:59:45;;;;;;;6.80;1.80;;;21.80;94.90;;;;;;5094124;28;20500;-69
2022/07/01 10:02:11;;;;;;;6.67;1.63;;;;;;;;;;5093929;28;20091;-70
2022/07/01 10:04:40;;;;;;;6.90;1.50;;;21.20;97.30;;;;;;5094353;28;20043;-70
2022/07/01 10:07:06;;;;;;;8.67;1.83;;;;;;;;;;5093861;28;20047;-70
2022/07/01 10:10:04;;;;;;;9.00;2.30;;;20.60;99.90;;;;;;5093997;28;20047;-69
2022/07/01 10:12:50;;;;;;;10.43;2.33;;;20.50;99.90;;;;;;5092989;28;20056;-69
2022/07/01 10:15:18;;;;;;;8.33;1.60;;;20.00;99.90;;;;;;5093625;28;20476;-69
2022/07/01 10:17:46;;;;;;;5.53;1.40;;;20.00;99.90;;;;;;5094117;28;20097;-69
2022/07/01 10:20:25;;;;;;;7.50;1.50;;;19.60;99.90;;;;;;5059139;28;20048;-69
2022/07/01 10:23:04;;;;;;;5.00;1.40;;;19.60;99.90;;;;;;5094031;28;20048;-69
2022/07/01 10:25:47;;;;;;;9.17;2.20;;;19.60;99.90;;;;;;5093608;28;20046;-69
2022/07/01 10:28:16;;;;;;;7.13;2.00;;;19.70;99.90;;;;;;5075736;28;20052;-69
2022/07/01 10:31:05;;;;;;;9.40;1.93;;;19.80;99.90;;;;;;5092867;28;20044;-69
2022/07/01 10:33:39;;;;;;;7.63;1.63;;;19.90;99.90;;;;;;5075560;28;20048;-69
2022/07/01 10:36:07;;;;;;;7.60;1.87;;;20.00;99.90;;;;;;5075498;28;20131;-69
2022/07/01 10:38:33;;;;;;;6.20;1.97;;;20.10;99.90;;;;;;5093294;28;20048;-70
2022/07/01 10:41:09;;;;;;;8.73;2.00;;;20.10;99.90;;;;;;5075851;28;20048;-69
2022/07/01 10:43:41;;;;;;;6.53;1.93;;;20.10;99.90;;;;;;5093701;28;20052;-69
2022/07/01 10:46:07;;;;;;;5.97;1.83;;;20.10;99.90;;;;;;5075090;28;20126;-68
2022/07/01 10:48:34;;;;;;;5.93;1.70;;;20.20;99.90;;;;;;5093111;28;20119;-68
2022/07/01 10:51:00;;;;;;;6.97;1.40;;;20.40;99.90;;;;;;5070732;28;20056;-67
2022/07/01 10:53:46;;;;;;;4.87;1.63;;;20.60;99.90;;;;;;5072428;28;20123;-68
2022/07/01 10:56:17;;;;;;;5.37;1.40;;;20.70;99.90;;;;;;5072206;28;20091;-70
2022/07/01 10:58:43;;;;;;;4.83;2.00;;;20.80;99.90;;;;;;5073305;28;20135;-71
2022/07/01 11:01:09;;;;;;;5.27;1.67;;;20.90;99.90;;;;;;5071983;28;20045;-71
2022/07/01 11:03:36;;;;;;;6.40;1.80;;;21.00;99.90;;;;;;5072563;28;20055;-71
2022/07/01 11:06:02;;;;;;;6.20;1.53;;;21.10;99.90;;;;;;5071932;28;20052;-71
2022/07/01 11:08:28;;;;;;;6.37;1.97;;;21.20;99.90;;;;;;5072556;28;20041;-71
2022/07/01 11:11:01;;;;;;;6.67;1.90;;;21.20;99.90;;;;;;5072998;28;20048;-71
2022/07/01 11:13:27;;;;;;;7.43;1.90;;;21.10;99.90;;;;;;5072570;28;20503;-71
2022/07/01 11:15:54;;;;;;;5.20;1.80;;;21.00;99.90;;;;;;5072760;28;20131;-71
2022/07/01 11:18:20;;;;;;;8.60;2.10;;;21.00;99.90;;;;;;5072254;28;20044;-71
2022/07/01 11:20:46;;;;;;;8.33;1.93;;;21.10;99.90;;;;;;5071859;28;20086;-70
2022/07/01 11:23:13;;;;;;;6.03;1.67;;;21.10;99.90;;;;;;5072746;28;20083;-71
2022/07/01 11:25:39;;;;;;;4.17;1.50;;;21.20;99.90;;;;;;5072739;28;20048;-69
2022/07/01 11:28:04;;;;;;;6.57;1.50;;;21.20;99.90;;;;;;5072637;28;20076;-71
2022/07/01 11:30:30;;;;;;;7.67;2.33;;;21.20;99.90;;;;;;5072310;28;20045;-71
2022/07/01 11:32:57;;;;;;;10.67;1.77;;;21.20;99.90;;;;;;5071857;28;20045;-71
2022/07/01 11:41:05;;;;;;;10.07;2.30;;;21.20;99.90;;;;;;5081618;28;20052;-71
2022/07/01 11:43:33;;;;;;;7.93;2.10;;;21.20;99.90;;;;;;5084588;28;20373;-72
2022/07/01 11:46:01;;;;;;;7.77;1.93;;;21.30;99.90;;;;;;5096594;28;20044;-77
2022/07/01 11:48:44;;;;;;;7.37;1.80;;;21.40;99.90;;;;;;5096368;28;20048;-74
2022/07/01 11:51:14;;;;;;;7.30;1.97;;;21.50;98.80;;;;;;5078934;28;20056;-74
2022/07/01 11:53:42;;;;;;;6.43;1.33;;;21.50;99.50;;;;;;5075910;28;20056;-71
2022/07/01 11:56:09;;;;;;;6.00;1.37;;;21.50;97.50;;;;;;5076122;28;20101;-70
2022/07/01 11:58:46;;;;;;;4.73;1.40;;;21.50;96.10;;;;;;5075813;28;20045;-67
2022/07/01 12:01:25;;;;;;;7.17;1.50;;;21.50;93.30;;;;;;5076214;28;20051;-73
2022/07/01 12:03:52;;;;;;;3.87;1.20;;;21.40;94.30;;;;;;5076031;28;20044;-72
2022/07/01 12:06:19;;;;;;;5.07;1.53;;;21.30;94.60;;;;;;5075960;28;20052;-72
2022/07/01 12:08:46;;;;;;;5.60;1.77;;;21.40;95.30;;;;;;5075786;28;20052;-73
2022/07/01 12:11:12;;;;;;;9.90;1.93;;;21.50;95.70;;;;;;5075851;28;20041;-72
2022/07/01 12:13:38;;;;;;;4.93;1.30;;;21.60;93.70;;;;;;5075501;28;20048;-73
2022/07/01 12:16:09;;;;;;;7.90;1.53;;;21.70;93.30;;;;;;5075863;28;20040;-73
2022/07/01 12:18:35;;;;;;;6.13;1.30;;;21.70;91.50;;;;;;5075489;28;20051;-73
2022/07/01 12:21:01;;;;;;;4.47;1.20;;;21.70;91.30;;;;;;5075759;28;20400;-74
2022/07/01 12:23:26;;;;;;;6.40;1.77;;;21.80;92.40;;;;;;5075442;28;20044;-74
2022/07/01 12:25:54;;;;;;;8.63;1.37;;;21.80;87.30;;;;;;5074475;28;20437;-74
2022/07/01 12:28:27;;;;;;;7.83;1.33;;;21.70;83.80;;;;;;5075628;28;20377;-73
2022/07/01 12:31:10;;;;;;;4.87;1.47;;;21.70;85.30;;;;;;5075525;28;20055;-74
2022/07/01 12:33:37;;;;;;;5.57;1.60;;;21.70;82.30;;;;;;5075317;28;20044;-69
2022/07/01 12:36:04;;;;;;;6.50;1.60;;;21.70;82.70;;;;;;5075401;28;20037;-70
2022/07/01 12:38:30;;;;;;;8.20;1.93;;;21.80;82.80;;;;;;5075201;28;20102;-69
2022/07/01 12:40:56;;;;;;;8.60;1.73;;;21.90;79.70;;;;;;5074382;28;20091;-69
2022/07/01 12:43:28;;;;;;;4.63;1.40;;;21.80;78.90;;;;;;5075419;28;20045;-69
2022/07/01 12:45:56;;;;;;;7.90;1.70;;;21.80;80.60;;;;;;5065336;28;20041;-69
2022/07/01 12:48:22;;;;;;;7.87;2.13;;;21.80;76.90;;;;;;5055213;28;20045;-69
2022/07/01 12:50:50;;;;;;;6.40;1.67;;;21.70;77.50;;;;;;5053391;28;20493;-69
2022/07/01 12:53:20;;;;;;;5.80;1.50;;;21.60;79.90;;;;;;5054888;28;20103;-69
2022/07/01 12:55:57;;;;;;;7.17;1.53;;;21.50;84.90;;;;;;5053102;28;20107;-69
2022/07/01 12:58:25;;;;;;;6.43;1.73;;;21.60;89.40;;;;;;5054074;28;20052;-72
2022/07/01 13:00:58;;;;;;;12.07;1.87;;;21.50;88.60;;;;;;5054991;28;20122;-72
2022/07/01 13:03:28;;;;;;;9.77;1.70;;;21.50;89.40;;;;;;5054022;28;20056;-73
2022/07/01 13:05:55;;;;;;;7.47;1.87;;;21.50;90.30;;;;;;5054959;28;20045;-74